Terminal Aerodrome Forecast
Issued by NWS Bismarck, ND

Home | Current Version | Previous Version | Text Only | Print | Product List | Glossary Off
Versions: 1 2 3 4 5 6 7 8 9 10 11 12 13 14 15 16 17

000
FTUS43 KBIS 280500
TAFBIS
TAF
KBIS 280539Z 2806/2906 VRB04KT P6SM BKN220
     FM280800 33002KT P6SM FEW250
     FM281600 32009KT P6SM SCT110 BKN150
      TEMPO 2818/2820 33017G24KT BKN012
     FM282000 32020G26KT P6SM VCSH SCT006 OVC012
     FM290100 32019G28KT P6SM -SHSN SCT004 OVC011=

USA.gov is the U.S. government's official web portal to all federal, state and local government web resources and services.